createdAt,value
2022-09-20T00:02:04.006Z,100.00
2022-09-20T00:04:39.355Z,100.00
2022-09-20T00:07:11.779Z,100.00
2022-09-20T00:09:47.700Z,100.00
2022-09-20T00:12:24.422Z,100.00
2022-09-20T00:18:05.928Z,100.00
2022-09-20T00:20:47.239Z,100.00
2022-09-20T00:26:09.058Z,100.00
2022-09-20T00:28:53.895Z,100.00
2022-09-20T00:31:38.870Z,100.00
2022-09-20T00:34:49.597Z,100.00
2022-09-20T00:37:27.190Z,100.00
2022-09-20T00:40:08.654Z,100.00
2022-09-20T00:45:48.997Z,100.00
2022-09-20T00:48:35.685Z,100.00
2022-09-20T00:51:19.861Z,100.00
2022-09-20T00:53:51.746Z,100.00
2022-09-20T00:56:34.475Z,100.00
2022-09-20T00:59:25.037Z,100.00
2022-09-20T01:02:04.573Z,100.00
2022-09-20T01:04:44.459Z,100.00
2022-09-20T01:10:32.173Z,100.00
2022-09-20T01:13:03.105Z,100.00
2022-09-20T01:15:38.755Z,100.00
2022-09-20T01:18:25.943Z,100.00
2022-09-20T01:28:08.944Z,100.00
2022-09-20T01:30:56.762Z,100.00
2022-09-20T01:34:01.765Z,100.00
2022-09-20T01:36:52.242Z,100.00
2022-09-20T01:40:00.884Z,100.00
2022-09-20T01:42:37.892Z,100.00
2022-09-20T01:45:41.320Z,100.00
2022-09-20T01:48:39.113Z,100.00
2022-09-20T01:51:22.440Z,100.00
2022-09-20T01:54:16.110Z,100.00
2022-09-20T01:57:02.827Z,100.00
2022-09-20T02:00:09.800Z,100.00
2022-09-20T02:09:04.429Z,100.00
2022-09-20T02:11:52.962Z,100.00
2022-09-20T02:14:31.008Z,100.00
2022-09-20T02:17:07.154Z,100.00
2022-09-20T02:19:56.851Z,100.00
2022-09-20T02:22:47.396Z,100.00
2022-09-20T02:25:53.076Z,100.00
2022-09-20T02:29:08.333Z,100.00
2022-09-20T02:32:10.321Z,100.00
2022-09-20T02:34:51.192Z,100.00
2022-09-20T02:38:02.419Z,100.00
2022-09-20T02:40:47.204Z,100.00
2022-09-20T02:43:37.769Z,100.00
2022-09-20T02:46:17.119Z,100.00
2022-09-20T03:00:23.835Z,100.00
2022-09-20T03:03:42.774Z,100.00
2022-09-20T03:19:40.733Z,100.00
2022-09-20T03:37:00.689Z,100.00
2022-09-20T03:40:09.993Z,100.00
2022-09-20T03:46:00.164Z,100.00
2022-09-20T03:48:52.845Z,100.00
2022-09-20T03:51:44.662Z,100.00
2022-09-20T03:54:51.021Z,100.00
2022-09-20T03:57:48.007Z,100.00
2022-09-20T04:00:46.198Z,100.00
2022-09-20T04:03:23.954Z,100.00
2022-09-20T04:17:03.809Z,100.00
2022-09-20T04:20:17.884Z,100.00
2022-09-20T05:39:43.107Z,100.00
2022-09-20T06:00:12.567Z,100.00
2022-09-20T06:03:22.936Z,100.00
2022-09-20T06:06:18.972Z,100.00
2022-09-20T06:32:30.170Z,100.00
2022-09-20T06:35:16.753Z,100.00
2022-09-20T06:38:17.175Z,100.00
2022-09-20T06:41:19.242Z,100.00
2022-09-20T06:43:50.147Z,100.00
2022-09-20T06:46:29.670Z,100.00
2022-09-20T06:49:04.721Z,100.00
2022-09-20T06:51:41.952Z,100.00
2022-09-20T06:54:16.247Z,100.00
2022-09-20T06:59:57.344Z,100.00
2022-09-20T07:02:59.695Z,100.00
2022-09-20T07:05:31.128Z,100.00
2022-09-20T07:11:29.080Z,100.00
2022-09-20T07:19:57.219Z,95.87
2022-09-20T07:22:41.182Z,93.80
2022-09-20T07:28:26.991Z,88.90
2022-09-20T07:41:51.710Z,83.56
2022-09-20T07:43:42.846Z,84.03
2022-09-20T08:03:34.153Z,73.38
2022-09-20T08:06:34.113Z,73.79
2022-09-20T08:09:37.266Z,76.82
2022-09-20T08:15:01.773Z,71.58
2022-09-20T08:17:38.111Z,64.49
2022-09-20T08:20:11.556Z,60.33
2022-09-20T09:11:51.550Z,44.59
2022-09-20T09:18:18.823Z,50.77
2022-09-20T09:31:06.160Z,49.82
2022-09-20T09:37:00.286Z,46.11
2022-09-20T09:46:11.272Z,46.41
2022-09-20T10:20:47.182Z,43.21
2022-09-20T10:40:08.453Z,43.97
2022-09-20T10:54:04.752Z,46.47
2022-09-20T10:57:12.860Z,47.39
2022-09-20T11:03:47.195Z,45.34
2022-09-20T11:06:41.209Z,44.17
2022-09-20T11:09:16.636Z,45.19
2022-09-20T11:19:20.067Z,44.69
2022-09-20T11:49:20.136Z,44.40
2022-09-20T11:52:29.473Z,43.24
2022-09-20T11:55:31.981Z,42.25
2022-09-20T11:58:14.463Z,42.33
2022-09-20T12:16:26.899Z,42.38
2022-09-20T12:19:48.142Z,42.42
2022-09-20T12:31:38.071Z,41.31
2022-09-20T12:37:49.038Z,40.91
2022-09-20T13:04:44.495Z,40.17
2022-09-20T13:30:33.646Z,39.32
2022-09-20T13:36:46.035Z,39.26
2022-09-20T13:39:38.540Z,38.91
2022-09-20T14:44:02.817Z,43.43
2022-09-20T14:46:42.279Z,43.39
2022-09-20T14:52:47.453Z,44.09
2022-09-20T14:55:20.956Z,45.51
2022-09-20T15:11:16.530Z,46.54
2022-09-20T15:14:14.226Z,46.06
2022-09-20T15:16:50.708Z,46.02
2022-09-20T15:19:25.541Z,46.31
2022-09-20T15:22:03.550Z,45.76
2022-09-20T15:37:27.235Z,46.68
2022-09-20T15:40:19.346Z,47.02
2022-09-20T15:43:23.579Z,48.47
2022-09-20T15:45:57.215Z,49.35
2022-09-20T15:48:47.579Z,50.02
2022-09-20T15:54:12.664Z,51.43
2022-09-20T15:57:21.346Z,51.92
2022-09-20T16:09:03.966Z,55.19
2022-09-20T16:11:37.764Z,56.17
2022-09-20T16:14:16.871Z,56.79
2022-09-20T16:19:51.860Z,56.67
2022-09-20T16:22:28.510Z,57.00
2022-09-20T16:25:22.709Z,58.19
2022-09-20T16:27:58.652Z,59.68
2022-09-20T16:30:29.994Z,59.54
2022-09-20T16:33:22.541Z,60.64
2022-09-20T16:35:56.676Z,61.21
2022-09-20T16:38:43.923Z,62.26
2022-09-20T17:28:24.874Z,72.11
2022-09-20T17:40:04.386Z,75.20
2022-09-20T19:15:13.114Z,100.00
2022-09-20T19:21:22.850Z,100.00
2022-09-20T19:24:02.924Z,100.00
2022-09-20T19:26:31.681Z,100.00
2022-09-20T19:29:07.589Z,100.00
2022-09-20T19:38:18.036Z,100.00
2022-09-20T19:45:06.616Z,100.00
2022-09-20T20:18:22.854Z,100.00
2022-09-20T20:21:10.019Z,100.00
2022-09-20T20:23:59.446Z,100.00
2022-09-20T20:26:43.294Z,100.00
2022-09-20T20:29:24.306Z,100.00
2022-09-20T20:32:02.419Z,100.00
2022-09-20T20:37:46.477Z,100.00
2022-09-20T20:40:25.719Z,100.00
2022-09-20T20:58:01.398Z,100.00
2022-09-20T21:01:12.277Z,100.00
2022-09-20T21:13:55.874Z,100.00
2022-09-20T21:16:32.630Z,100.00
2022-09-20T21:19:04.074Z,100.00
2022-09-20T21:21:42.473Z,100.00
2022-09-20T21:24:16.873Z,100.00
2022-09-20T21:26:52.013Z,100.00
2022-09-20T21:29:20.975Z,100.00
2022-09-20T21:31:49.719Z,100.00
2022-09-20T21:34:18.591Z,100.00
2022-09-20T21:36:47.378Z,100.00
2022-09-20T21:39:16.193Z,100.00
2022-09-20T21:41:48.074Z,100.00
2022-09-20T21:44:17.313Z,100.00
2022-09-20T21:46:47.787Z,100.00
2022-09-20T21:50:16.022Z,100.00
2022-09-20T21:52:48.216Z,100.00
2022-09-20T21:55:21.257Z,100.00
2022-09-20T21:57:50.201Z,100.00
2022-09-20T22:00:18.866Z,100.00
2022-09-20T22:02:50.513Z,100.00
2022-09-20T22:05:22.289Z,100.00
2022-09-20T22:08:00.246Z,100.00
2022-09-20T22:10:32.111Z,100.00
2022-09-20T22:13:02.675Z,100.00
2022-09-20T22:15:33.716Z,100.00
2022-09-20T22:18:06.175Z,100.00
2022-09-20T22:20:44.204Z,100.00
2022-09-20T22:27:00.601Z,100.00
2022-09-20T22:36:45.519Z,100.00
2022-09-20T22:39:18.633Z,100.00
2022-09-20T22:41:53.373Z,100.00
2022-09-20T22:44:23.891Z,100.00
2022-09-20T22:50:28.617Z,100.00
2022-09-20T22:53:01.216Z,100.00
2022-09-20T22:59:09.148Z,100.00
2022-09-20T23:02:01.057Z,100.00
2022-09-20T23:04:38.820Z,100.00
2022-09-20T23:07:09.870Z,100.00
2022-09-20T23:13:28.167Z,100.00
2022-09-20T23:15:57.273Z,100.00
2022-09-20T23:18:27.275Z,100.00
2022-09-20T23:21:02.816Z,100.00
2022-09-20T23:23:31.822Z,100.00
2022-09-20T23:26:09.377Z,100.00
2022-09-20T23:32:03.520Z,100.00
2022-09-20T23:34:34.528Z,100.00
2022-09-20T23:37:06.948Z,100.00
2022-09-20T23:39:35.608Z,100.00
2022-09-20T23:42:04.388Z,100.00
2022-09-20T23:44:34.496Z,100.00
2022-09-20T23:47:04.833Z,100.00
2022-09-20T23:49:37.450Z,100.00
2022-09-20T23:52:24.768Z,100.00
2022-09-20T23:54:55.221Z,100.00
2022-09-20T23:57:30.348Z,100.00
